Flight Track Log - Related Links

Times and Time Zones

All times are in EDT time to prevent confusion due to time zone crossing. See the BWA425 flight status page for this flight to view local times or setup timezone preferences in your user account.


Time Position Orientation Groundspeed Altitude Reporting Facility
EDT Latitude Longitude Course Direction KTS MPH feet Rate Location/Type
Fri 01:39:24 AM 40.5706 -73.7217 128° Southeast 197 227 3,400  Level New York Center
Fri 01:40:24 AM 40.5269 -73.6353 124° Southeast 252 290 6,200 2,700 Climbing New York Center
Fri 01:41:24 AM 40.4872 -73.5572 124° Southeast 273 314 8,800 2,350 Climbing New York Center
Fri 01:42:00 AM 40.2558 -73.1314 128° Southeast  Level FlightAware Approximate
Fri 01:42:24 AM 40.4372 -73.4597 124° Southeast 291 335 10,900  Level New York Center
Fri 01:43:00 AM 40.1743 -72.9954 128° Southeast  Level FlightAware Approximate
Fri 01:43:24 AM 40.3894 -73.3653 124° Southeast 329 379 12,400  Level New York Center
Fri 01:44:24 AM 40.2867 -73.3069 157° South 349 402 14,800 2,200 Climbing New York Center
Fri 01:45:24 AM 40.1997 -73.2711 163° South 367 422 16,800 1,750 Climbing New York Center
Fri 01:46:24 AM 40.0861 -73.2261 163° South 383 441 18,300 1,650 Climbing New York Center
Fri 01:47:24 AM 39.9786 -73.1844 163° South 397 457 20,100 1,750 Climbing New York Center
Fri 01:48:24 AM 39.8669 -73.1428 164° South 407 468 21,800 1,650 Climbing New York Center
Fri 01:49:24 AM 39.7656 -73.1014 163° South 415 478 23,400 1,500 Climbing New York Center
Fri 01:50:24 AM 39.6519 -73.0572 163° South 421 484 24,800 1,250 Climbing New York Center
Fri 01:51:24 AM 39.5339 -73.0103 163° South 432 497 25,900 1,100 Climbing New York Center
Fri 01:52:24 AM 39.4139 -72.9633 163° South 437 503 27,000 1,100 Climbing New York Center
Fri 01:53:24 AM 39.2917 -72.9194 164° South 447 514 28,100 1,200 Climbing New York Center
Fri 01:54:24 AM 39.1717 -72.8703 162° South 453 521 29,400 1,250 Climbing New York Center
Fri 01:55:24 AM 39.0475 -72.8211 163° South 453 521 30,600 1,100 Climbing New York Center
Fri 01:56:24 AM 38.9275 -72.7722 162° South 453 521 31,600 1,000 Climbing New York Center
Fri 01:57:24 AM 38.8053 -72.7261 164° South 453 521 32,600 950 Climbing New York Center
Fri 01:58:24 AM 38.6831 -72.6747 162° South 453 521 33,500 750 Climbing New York Center
Fri 01:59:24 AM 38.5625 -72.6397 167° South 453 521 34,100 600 Climbing New York Center
Fri 02:00:24 AM 38.4403 -72.5889 162° South 458 527 34,700 450 Climbing New York Center
Fri 02:01:24 AM 38.3161 -72.5433 164° South 458 527 35,000 150 Climbing New York Center
Fri 02:02:24 AM 38.1917 -72.4953 163° South 458 527 35,000  Level New York Center
Fri 02:03:24 AM 38.0692 -72.4475 163° South 458 527 35,000  Level New York Center
Fri 02:04:24 AM 37.9467 -72.4053 165° South 458 527 35,000  Level New York Center
Fri 02:05:24 AM 37.8053 -72.3861 174° South 458 527 35,000  Level New York Center
Fri 02:06:24 AM 37.6819 -72.3939 183° South 446 513 35,000  Level New York Center
Fri 02:07:24 AM 37.5819 -72.3892 178° South 436 502 35,000  Level New York Center
Fri 02:08:24 AM 37.4589 -72.3889 180° South 429 494 35,000  Level New York Center
Fri 02:09:24 AM 37.3336 -72.3914 181° South 441 507 35,000  Level New York Center
Fri 02:10:24 AM 37.2064 -72.3914 180° South 447 514 35,000  Level New York Center
Fri 02:11:24 AM 37.0811 -72.3936 181° South 453 521 35,000 -150 Level New York Center
Fri 02:12:24 AM 36.9581 -72.3936 180° South 453 521 34,700 -650 Descending New York Center
Fri 02:13:24 AM 36.8267 -72.3958 181° South 458 527 33,700 -850 Descending New York Center
Fri 02:14:24 AM 36.7014 -72.3958 180° South 459 528 33,000 -350 Descending New York Center
Fri 02:15:24 AM 36.5764 -72.3983 181° South 454 522 33,000  Level New York Center
Fri 02:16:24 AM 36.4553 -72.3981 180° South 461 531 33,000 -50 Level New York Center
Fri 02:17:24 AM 36.3217 -72.4003 181° South 461 531 32,900 -350 Descending New York Center
Fri 02:18:24 AM 36.1967 -72.4003 180° South 461 531 32,300 -650 Descending New York Center
Fri 02:19:24 AM 36.0631 -72.4025 181° South 461 531 31,600 -600 Descending New York Center
Fri 02:20:24 AM 35.9419 -72.4025 180° South 456 525 31,100 -300 Descending New York Center
Fri 02:21:24 AM 35.8147 -72.4075 182° South 451 519 31,000 -50 Descending New York Center
Fri 02:22:24 AM 35.6917 -72.4047 179° South 451 519 31,000  Level New York Center
Fri 02:23:24 AM 35.5644 -72.4072 181° South 456 525 31,000  Level New York Center
Fri 02:24:24 AM 35.4350 -72.4094 181° South 465 535 31,000  Level New York Center
Fri 02:25:24 AM 35.3078 -72.4092 180° South 460 529 31,000  Level New York Center
Fri 02:26:24 AM 35.1825 -72.4092 180° South 460 529 31,000  Level New York Center
Fri 02:28:00 AM 34.9750 -72.3938 175° South  Level FlightAware Approximate
Fri 02:29:38 AM 35.0500 -72.4167 175° South 478 550 31,000  Level New York Oceanic (ODAPS)
Fri 02:38:08 AM 33.9833 -72.3000 167° South 467 537 31,000 42 Level New York Oceanic (ODAPS)
Fri 03:17:09 AM 28.9000 -70.9833 168° South 489 563 33,000 31 Climbing New York Oceanic (ODAPS)
Fri 03:41:42 AM 25.2522 -70.1158 176° South 453 521 33,000  Level Miami Center
Fri 03:42:00 AM 25.1346 -70.0811 168° South 489 563 33,000  Level FlightAware Transoceanic
Fri 03:42:42 AM 25.1214 -70.0842 168° South 464 534 33,000  Level Miami Center
Fri 03:43:00 AM 25.0000 -70.0500 176° South 489 563 33,000  Level FlightAware Transoceanic
Fri 03:43:42 AM 24.9931 -70.0592 170° South 469 540 33,000  Level Miami Center
Fri 03:44:00 AM 24.8676 -70.0410 176° South 489 563 33,000  Level FlightAware Transoceanic
Fri 03:44:44 AM 24.8672 -70.0478 175° South 469 540 33,000  Level Miami Center
Fri 03:45:00 AM 24.7353 -70.0321 176° South 489 563 33,000  Level FlightAware Transoceanic
Fri 03:45:43 AM 24.7353 -70.0369 176° South 469 540 33,000  Level Miami Center
Fri 03:46:00 AM 24.6029 -70.0231 176° South 489 563 33,000  Level FlightAware Transoceanic
Fri 03:46:44 AM 24.6114 -70.0208 173° South 472 543 33,000  Level Miami Center
Fri 03:47:00 AM 24.4706 -70.0142 176° South 489 563 33,000 100 Level FlightAware Transoceanic
Fri 03:47:44 AM 24.4956 -69.9544 152° Southeast 449 517 33,100 577 Climbing Miami Center
Fri 03:48:44 AM 24.3814 -69.8742 147° Southeast 463 533 34,000 700 Climbing Miami Center
Fri 03:49:44 AM 24.2650 -69.7989 149° Southeast 477 549 34,500 500 Climbing Miami Center
Fri 03:50:44 AM 24.1467 -69.7236 150° Southeast 482 555 35,000 250 Climbing Miami Center
Fri 03:51:44 AM 24.0283 -69.6464 149° Southeast 489 563 35,000  Level Miami Center
Fri 03:52:42 AM 23.9119 -69.5692 149° Southeast 497 572 35,000  Level Miami Center
Fri 03:53:42 AM 23.7914 -69.4944 150° Southeast 497 572 35,000  Level Miami Center
Fri 03:54:44 AM 23.6728 -69.4153 149° Southeast 499 574 35,000  Level Miami Center
Fri 03:55:42 AM 23.5519 -69.3364 149° Southeast 499 574 35,000  Level Miami Center
Fri 03:56:42 AM 23.4464 -69.2658 148° Southeast 511 588 35,000  Level Miami Center
Fri 03:57:44 AM 23.3256 -69.1894 150° Southeast 499 574 35,000  Level Miami Center
Fri 03:58:44 AM 23.2050 -69.1133 150° Southeast 504 580 35,000  Level Miami Center
Fri 03:59:42 AM 23.0842 -69.0350 149° Southeast 504 580 35,000  Level Miami Center
Fri 04:00:43 AM 22.9611 -68.9569 150° Southeast 504 580 35,000  Level Miami Center
Fri 04:01:42 AM 22.8447 -68.8831 150° Southeast 504 580 35,000  Level Miami Center
Fri 04:02:43 AM 22.7261 -68.8050 149° Southeast 499 574 35,000  Level Miami Center
Fri 04:03:42 AM 22.6050 -68.7272 149° Southeast 504 580 35,000  Level Miami Center
Fri 04:04:43 AM 22.4864 -68.6517 150° Southeast 504 580 35,000  Level Miami Center
Fri 04:05:42 AM 22.3633 -68.5742 150° Southeast 504 580 35,000  Level Miami Center
Fri 04:06:42 AM 22.2511 -68.5031 150° Southeast 497 572 35,000  Level Miami Center
Fri 04:07:42 AM 22.1217 -68.4217 150° Southeast 499 574 35,000  Level Miami Center
Fri 04:08:43 AM 22.0136 -68.3506 149° Southeast 499 574 35,000  Level Miami Center
Fri 04:09:43 AM 21.8906 -68.2736 150° Southeast 504 580 35,000  Level Miami Center
Fri 04:10:44 AM 21.7717 -68.1986 150° Southeast 505 581 35,000  Level Miami Center
Fri 04:11:43 AM 21.6486 -68.1222 150° Southeast 500 575 35,000  Level Miami Center
Fri 04:12:42 AM 21.5361 -68.0472 148° Southeast 500 575 35,000  Level Miami Center
Fri 04:13:42 AM 21.4153 -67.9728 150° Southeast 500 575 35,000  Level Miami Center
Fri 04:14:42 AM 21.2922 -67.8986 151° Southeast 506 582 35,000  Level Miami Center
Fri 04:15:43 AM 21.1772 -67.8197 147° Southeast 506 582 35,000  Level Miami Center
Fri 04:16:42 AM 21.0522 -67.7439 150° Southeast 506 582 35,000  Level Miami Center
Fri 04:17:42 AM 20.9333 -67.6722 151° Southeast 501 577 35,000  Level Miami Center
Fri 04:18:19 AM 20.8500 -67.6167 148° Southeast 490 564 35,000  Level San Juan Center
Fri 04:19:20 AM 20.7333 -67.5500 152° Southeast 490 564 35,000  Level San Juan Center
Fri 04:20:20 AM 20.6167 -67.4833 152° Southeast 490 564 35,000  Level San Juan Center
Fri 04:21:20 AM 20.5000 -67.4000 146° Southeast 490 564 35,000  Level San Juan Center
Fri 04:22:20 AM 20.3500 -67.3167 152° Southeast 510 587 35,000  Level San Juan Center
Fri 04:23:21 AM 20.2333 -67.2500 152° Southeast 500 575 35,000  Level San Juan Center
Fri 04:24:21 AM 20.1167 -67.1667 146° Southeast 500 575 35,000  Level San Juan Center
Fri 04:25:21 AM 20.0000 -67.1000 152° Southeast 500 575 35,000  Level San Juan Center
Fri 04:26:22 AM 19.8667 -67.0167 150° Southeast 500 575 35,000  Level San Juan Center
Fri 04:27:22 AM 19.7500 -66.9500 152° Southeast 490 564 35,000  Level San Juan Center
Fri 04:28:22 AM 19.6333 -66.8667 146° Southeast 500 575 35,000  Level San Juan Center
Fri 04:29:23 AM 19.5167 -66.8000 152° Southeast 490 564 35,000  Level San Juan Center
Fri 04:30:23 AM 19.4000 -66.7333 152° Southeast 490 564 35,000  Level San Juan Center
Fri 04:31:23 AM 19.2667 -66.6500 149° Southeast 500 575 35,000  Level San Juan Center
Fri 04:32:24 AM 19.1500 -66.5833 152° Southeast 490 564 35,000  Level San Juan Center
Fri 04:33:24 AM 19.0333 -66.5167 152° Southeast 490 564 35,000  Level San Juan Center
Fri 04:34:24 AM 18.9000 -66.4333 149° Southeast 490 564 35,000  Level San Juan Center
Fri 04:35:25 AM 18.7833 -66.3667 152° Southeast 490 564 35,000  Level San Juan Center
Fri 04:36:25 AM 18.6667 -66.2833 146° Southeast 500 575 35,000  Level San Juan Center
Fri 04:37:25 AM 18.5500 -66.2167 152° Southeast 490 564 35,000  Level San Juan Center
Fri 04:38:25 AM 18.4333 -66.1500 152° Southeast 500 575 35,000  Level San Juan Center
Fri 04:39:26 AM 18.3000 -66.0833 155° Southeast 510 587 35,000  Level San Juan Center
Fri 04:40:26 AM 18.1833 -66.0000 146° Southeast 500 575 35,000  Level San Juan Center
Fri 04:41:26 AM 18.0667 -65.9333 151° Southeast 500 575 35,000  Level San Juan Center
Fri 04:42:26 AM 17.9500 -65.8667 151° Southeast 480 552 35,000  Level San Juan Center
Fri 04:43:27 AM 17.8167 -65.7833 149° Southeast 490 564 35,000  Level San Juan Center
Fri 04:44:27 AM 17.7000 -65.7167 151° Southeast 500 575 35,000  Level San Juan Center
Fri 04:45:27 AM 17.5667 -65.6500 155° Southeast 490 564 35,000  Level San Juan Center
Fri 04:46:28 AM 17.4500 -65.5667 146° Southeast 500 575 35,000  Level San Juan Center
Fri 04:47:28 AM 17.3333 -65.5000 151° Southeast 500 575 35,000  Level San Juan Center
Fri 04:48:28 AM 17.2167 -65.4333 151° Southeast 500 575 35,000  Level San Juan Center
Fri 04:49:29 AM 17.0833 -65.3667 154° Southeast 500 575 35,000  Level San Juan Center
Fri 04:50:29 AM 16.9667 -65.2833 146° Southeast 500 575 35,000  Level San Juan Center
Fri 04:51:29 AM 16.8500 -65.2167 151° Southeast 500 575 35,000  Level San Juan Center
Fri 04:52:30 AM 16.7333 -65.1500 151° Southeast 500 575 35,000  Level San Juan Center
Fri 04:53:30 AM 16.6000 -65.0833 154° Southeast 510 587 35,000  Level San Juan Center
Fri 04:54:30 AM 16.4833 -65.0000 146° Southeast 500 575 35,000  Level San Juan Center
Fri 04:55:31 AM 16.3667 -64.9333 151° Southeast 500 575 35,000  Level San Juan Center
Fri 04:56:31 AM 16.2333 -64.8667 154° Southeast 490 564 35,000  Level San Juan Center
Fri 04:57:31 AM 16.1167 -64.8000 151° Southeast 490 564 35,000  Level San Juan Center
Fri 04:58:32 AM 15.9833 -64.7167 149° Southeast 490 564 35,000  Level San Juan Center
Fri 04:59:32 AM 15.8833 -64.6500 147° Southeast 500 575 35,000  Level San Juan Center
Fri 05:00:32 AM 15.7667 -64.5833 151° Southeast 490 564 35,000  Level San Juan Center
Fri 05:01:33 AM 15.6500 -64.5167 151° Southeast 500 575 35,000  Level San Juan Center
Fri 05:02:33 AM 15.5333 -64.4500 151° Southeast 500 575 35,000  Level San Juan Center
Fri 05:03:33 AM 15.4000 -64.3833 154° Southeast 500 575 35,000  Level San Juan Center
Fri 05:04:33 AM 15.2833 -64.3000 145° Southeast 490 564 35,000  Level San Juan Center
Fri 05:06:34 AM 15.0500 -64.1667 151° Southeast 490 564 35,000  Level San Juan Center
Fri 05:08:00 AM 14.8926 -64.0678 149° Southeast  Level FlightAware Approximate
Fri 05:15:00 AM 14.1145 -63.5949 149° Southeast  Level FlightAware Approximate
Fri 05:16:00 AM 14.0037 -63.5269 149° Southeast  Level FlightAware Approximate
Fri 05:17:00 AM 13.8928 -63.4590 149° Southeast  Level FlightAware Approximate
Fri 05:18:00 AM 13.7820 -63.3912 149° Southeast  Level FlightAware Approximate
Fri 05:19:00 AM 13.6711 -63.3234 149° Southeast  Level FlightAware Approximate
Fri 05:20:00 AM 13.5602 -63.2556 149° Southeast  Level FlightAware Approximate
Fri 05:21:00 AM 13.4492 -63.1880 149° Southeast  Level FlightAware Approximate
Fri 05:22:00 AM 13.3383 -63.1204 149° Southeast  Level FlightAware Approximate
Fri 05:23:00 AM 13.2273 -63.0530 150° Southeast  Level FlightAware Approximate
Fri 05:24:00 AM 13.1160 -62.9860 150° Southeast  Level FlightAware Approximate
Fri 05:25:00 AM 13.0047 -62.9191 150° Southeast  Level FlightAware Approximate
Fri 05:26:00 AM 12.8934 -62.8522 150° Southeast  Level FlightAware Approximate
Fri 05:27:00 AM 12.7821 -62.7854 150° Southeast  Level FlightAware Approximate
Fri 05:28:00 AM 12.6707 -62.7187 150° Southeast  Level FlightAware Approximate
Fri 05:29:00 AM 12.5594 -62.6520 150° Southeast  Level FlightAware Approximate
Fri 05:30:00 AM 12.4480 -62.5854 150° Southeast  Level FlightAware Approximate
Fri 05:31:00 AM 12.3370 -62.5181 149° Southeast  Level FlightAware Approximate
Fri 05:32:00 AM 12.2262 -62.4506 149° Southeast  Level FlightAware Approximate
Fri 05:33:00 AM 12.1154 -62.3832 149° Southeast  Level FlightAware Approximate
Fri 05:34:00 AM 12.0032 -62.3183 154° Southeast  Level FlightAware Approximate
Fri 05:35:00 AM 11.8943 -62.2483 145° Southeast  Level FlightAware Approximate
Fri 05:36:00 AM 11.7869 -62.1754 150° Southeast  Level FlightAware Approximate
Fri 05:37:00 AM 11.6757 -62.1087 150° Southeast  Level FlightAware Approximate
Fri 05:38:00 AM 11.5645 -62.0420 150° Southeast  Level FlightAware Approximate
Fri 05:39:00 AM 11.4534 -61.9752 149° Southeast  Level FlightAware Approximate
Fri 05:40:00 AM 11.3430 -61.9071 149° Southeast  Level FlightAware Approximate
Fri 05:41:00 AM 11.2326 -61.8392 149° Southeast  Level FlightAware Approximate
Fri 05:42:00 AM 11.1222 -61.7713 149° Southeast  Level FlightAware Approximate
Fri 05:43:00 AM 11.0112 -61.7043 151° Southeast  Level FlightAware Approximate
Fri 05:44:00 AM 10.8980 -61.6414 151° Southeast  Level FlightAware Approximate
Fri 05:45:00 AM 10.7843 -61.5793 152° Southeast  Level FlightAware Approximate
Fri 05:46:00 AM 10.6721 -61.5148 147° Southeast  Level FlightAware Approximate
Fri 05:47:00 AM 10.5643 -61.4428 147° Southeast  Level FlightAware Approximate
Fri 05:48:00 AM 10.5954 -61.3372 154° Southeast  Level Estimated
Fri 05:49:00 AM 10.5954 -61.3372 11° North  Level Estimated
Fri 05:50:00 AM 10.5954 -61.3372 11° North  Level Estimated
Fri 05:51:00 AM 10.5954 -61.3372 11° North  Level Estimated
Fri 05:52:00 AM 10.5954 -61.3372 11° North  Level Estimated
Fri 05:53:00 AM 10.5954 -61.3372 11° North  Level Estimated
Fri 05:54:00 AM 10.5954 -61.3372 11° North  Level Estimated
Fri 05:55:00 AM 10.5954 -61.3372 11° North  Level Estimated
Fri 05:56:00 AM 10.5954 -61.3372 11° North  Level Estimated
Fri 05:57:00 AM 10.5954 -61.3372 11° North  Level Estimated

Login

Don't have an account? Register now (free) for customized features, flight alerts, and more!